Easton, New Hampshire
Current Conditions -  °F | °C
As of 12:35 AM on Thursday 23 Oct 2014 (Local Time) from K1P1 Reporting Station
Overcast Overcast  
Wind Chill: 12°   Ceiling: 3100
Heat Index: 12°   Visibility: 10mi
Dew Point:   Wind: 6mph
Humidity: 82%   Direction: 80°E
Pressure: 29.96"   Gusts: NA
Location:  44.1173°N, 71.8999°W
Report Text: K1P1 230435Z AUTO 08005KT 10SM OVC031 12/09 A2996 RMK AO2 LTG DSNT S T01190090
Loading
Personal Weather Stations






























Interactive Weather Map
Tropical Storm Tracking
New forecast layout! Learn more

10-Day Weather Forecast

Advertisements
Track Severe Weather on mobile